createdAt,value
2022-09-18T00:01:42.211Z,10.90
2022-09-18T00:04:15.037Z,10.90
2022-09-18T00:06:45.077Z,10.90
2022-09-18T00:09:15.498Z,10.90
2022-09-18T00:11:47.844Z,10.80
2022-09-18T00:14:18.671Z,10.80
2022-09-18T00:16:47.447Z,10.80
2022-09-18T00:19:17.968Z,10.80
2022-09-18T00:21:47.883Z,10.80
2022-09-18T00:24:17.671Z,10.80
2022-09-18T00:26:46.410Z,10.80
2022-09-18T00:29:15.862Z,10.80
2022-09-18T00:31:44.101Z,10.70
2022-09-18T00:34:15.105Z,10.70
2022-09-18T00:36:44.677Z,10.70
2022-09-18T00:39:13.697Z,10.70
2022-09-18T00:41:56.109Z,10.70
2022-09-18T00:44:43.826Z,10.70
2022-09-18T00:47:23.244Z,10.70
2022-09-18T00:49:56.688Z,10.70
2022-09-18T00:52:30.840Z,10.70
2022-09-18T00:55:04.347Z,10.70
2022-09-18T00:57:36.296Z,10.70
2022-09-18T01:00:11.902Z,10.70
2022-09-18T01:02:40.848Z,10.70
2022-09-18T01:05:10.466Z,10.70
2022-09-18T01:07:58.930Z,10.70
2022-09-18T01:10:38.089Z,10.70
2022-09-18T01:13:13.888Z,10.70
2022-09-18T01:15:50.024Z,10.70
2022-09-18T01:18:24.898Z,10.70
2022-09-18T01:21:04.117Z,10.70
2022-09-18T01:24:01.932Z,10.70
2022-09-18T01:27:02.250Z,10.70
2022-09-18T01:29:41.385Z,10.70
2022-09-18T01:32:15.101Z,10.70
2022-09-18T01:34:48.818Z,10.70
2022-09-18T01:37:22.080Z,10.70
2022-09-18T01:39:57.633Z,10.70
2022-09-18T01:42:29.539Z,10.60
2022-09-18T01:45:02.930Z,10.60
2022-09-18T01:47:37.462Z,10.60
2022-09-18T01:50:08.382Z,10.60
2022-09-18T01:52:41.325Z,10.60
2022-09-18T01:55:17.409Z,10.60
2022-09-18T01:57:50.822Z,10.50
2022-09-18T02:00:23.058Z,10.50
2022-09-18T02:02:56.232Z,10.50
2022-09-18T02:05:31.238Z,10.50
2022-09-18T02:08:11.421Z,10.50
2022-09-18T02:10:46.399Z,10.50
2022-09-18T02:13:23.777Z,10.50
2022-09-18T02:16:01.355Z,10.40
2022-09-18T02:18:34.494Z,10.40
2022-09-18T02:21:09.211Z,10.40
2022-09-18T02:23:44.227Z,10.40
2022-09-18T02:26:15.334Z,10.40
2022-09-18T02:28:48.620Z,10.30
2022-09-18T02:31:18.289Z,10.30
2022-09-18T02:33:46.497Z,10.30
2022-09-18T02:36:32.415Z,10.30
2022-09-18T02:39:14.906Z,10.30
2022-09-18T02:41:52.397Z,10.30
2022-09-18T02:44:26.443Z,10.20
2022-09-18T02:47:05.437Z,10.20
2022-09-18T02:49:42.573Z,10.20
2022-09-18T02:52:18.829Z,10.20
2022-09-18T02:54:54.558Z,10.20
2022-09-18T02:57:30.440Z,10.20
2022-09-18T03:00:01.991Z,10.20
2022-09-18T03:02:33.332Z,10.20
2022-09-18T03:05:02.795Z,10.10
2022-09-18T03:07:42.247Z,10.10
2022-09-18T03:10:11.823Z,10.10
2022-09-18T03:12:40.100Z,10.10
2022-09-18T03:15:09.420Z,10.10
2022-09-18T03:17:39.070Z,10.00
2022-09-18T03:20:08.265Z,10.00
2022-09-18T03:22:36.398Z,10.00
2022-09-18T03:25:07.627Z,10.00
2022-09-18T03:27:35.939Z,10.00
2022-09-18T03:30:04.495Z,10.00
2022-09-18T03:32:34.741Z,10.00
2022-09-18T03:35:04.481Z,10.10
2022-09-18T03:37:32.658Z,10.00
2022-09-18T03:40:04.105Z,10.10
2022-09-18T03:42:32.628Z,10.10
2022-09-18T03:45:02.179Z,10.20
2022-09-18T03:47:34.291Z,10.20
2022-09-18T03:50:07.081Z,10.10
2022-09-18T03:52:38.206Z,10.10
2022-09-18T03:55:28.578Z,10.10
2022-09-18T03:58:26.392Z,10.10
2022-09-18T04:01:15.998Z,10.10
2022-09-18T04:04:03.713Z,10.10
2022-09-18T04:06:55.985Z,10.10
2022-09-18T04:09:43.077Z,10.10
2022-09-18T04:12:11.571Z,10.20
2022-09-18T04:14:40.735Z,10.10
2022-09-18T04:17:09.577Z,10.20
2022-09-18T04:19:38.042Z,10.20
2022-09-18T04:22:08.965Z,10.10
2022-09-18T04:24:40.500Z,10.00
2022-09-18T04:27:09.914Z,10.10
2022-09-18T04:29:39.315Z,10.00
2022-09-18T04:32:09.678Z,10.00
2022-09-18T04:34:38.135Z,10.00
2022-09-18T04:37:10.216Z,10.00
2022-09-18T04:39:41.754Z,10.10
2022-09-18T04:42:10.939Z,10.00
2022-09-18T04:44:40.230Z,10.00
2022-09-18T04:47:11.105Z,10.00
2022-09-18T04:49:39.597Z,10.00
2022-09-18T04:52:08.765Z,10.00
2022-09-18T04:54:37.554Z,10.00
2022-09-18T04:57:07.351Z,10.00
2022-09-18T04:59:37.099Z,10.00
2022-09-18T05:02:06.724Z,9.90
2022-09-18T05:04:36.309Z,9.90
2022-09-18T05:07:13.375Z,9.90
2022-09-18T05:09:41.926Z,9.90
2022-09-18T05:12:13.919Z,9.90
2022-09-18T05:14:42.813Z,9.90
2022-09-18T05:17:14.097Z,9.90
2022-09-18T05:20:12.381Z,9.90
2022-09-18T05:22:45.997Z,9.90
2022-09-18T05:25:16.768Z,9.80
2022-09-18T05:27:54.803Z,9.80
2022-09-18T05:30:25.589Z,9.70
2022-09-18T05:32:59.434Z,9.80
2022-09-18T05:35:32.300Z,9.80
2022-09-18T05:38:01.717Z,9.80
2022-09-18T05:40:34.374Z,9.70
2022-09-18T05:43:04.636Z,9.70
2022-09-18T05:45:35.564Z,9.80
2022-09-18T05:48:09.993Z,9.80
2022-09-18T05:50:40.096Z,9.80
2022-09-18T05:53:13.454Z,9.80
2022-09-18T05:56:01.025Z,9.90
2022-09-18T05:58:32.047Z,9.90
2022-09-18T06:01:01.667Z,10.00
2022-09-18T06:03:45.081Z,10.00
2022-09-18T06:06:14.716Z,10.10
2022-09-18T06:08:43.155Z,10.10
2022-09-18T06:11:11.789Z,10.20
2022-09-18T06:13:41.998Z,10.20
2022-09-18T06:16:10.540Z,10.20
2022-09-18T06:19:02.367Z,10.30
2022-09-18T06:21:30.722Z,10.30
2022-09-18T06:23:59.858Z,10.30
2022-09-18T06:26:41.512Z,10.30
2022-09-18T06:29:11.393Z,10.30
2022-09-18T06:31:48.918Z,10.50
2022-09-18T06:34:23.198Z,10.40
2022-09-18T06:36:59.834Z,10.40
2022-09-18T06:39:51.367Z,10.50
2022-09-18T06:42:29.650Z,10.50
2022-09-18T06:45:09.405Z,10.50
2022-09-18T06:47:37.879Z,10.60
2022-09-18T06:50:06.814Z,10.60
2022-09-18T06:52:35.354Z,10.60
2022-09-18T06:55:06.939Z,10.70
2022-09-18T06:57:35.376Z,10.70
2022-09-18T07:00:05.046Z,10.80
2022-09-18T07:02:39.508Z,10.80
2022-09-18T07:05:34.491Z,10.80
2022-09-18T07:08:03.215Z,10.90
2022-09-18T07:10:35.674Z,10.90
2022-09-18T07:13:04.391Z,11.00
2022-09-18T07:15:39.514Z,11.10
2022-09-18T07:18:11.083Z,11.10
2022-09-18T07:20:40.036Z,11.20
2022-09-18T07:23:08.527Z,11.20
2022-09-18T07:25:48.420Z,11.20
2022-09-18T07:28:16.989Z,11.20
2022-09-18T07:30:57.259Z,11.20
2022-09-18T07:33:26.955Z,11.30
2022-09-18T07:35:55.376Z,11.40
2022-09-18T07:38:25.163Z,11.40
2022-09-18T07:40:56.872Z,11.50
2022-09-18T07:43:30.727Z,11.50
2022-09-18T07:46:00.533Z,11.60
2022-09-18T07:48:32.962Z,11.60
2022-09-18T07:51:15.636Z,11.70
2022-09-18T07:53:48.438Z,11.90
2022-09-18T07:56:25.455Z,11.90
2022-09-18T07:58:53.702Z,12.00
2022-09-18T08:01:26.737Z,12.10
2022-09-18T08:04:00.926Z,12.10
2022-09-18T08:07:04.245Z,12.20
2022-09-18T08:09:55.205Z,12.20
2022-09-18T08:12:38.857Z,12.30
2022-09-18T08:15:30.184Z,12.30
2022-09-18T08:18:33.626Z,12.30
2022-09-18T08:21:13.669Z,12.40
2022-09-18T08:23:48.497Z,12.40
2022-09-18T08:26:22.018Z,12.40
2022-09-18T08:28:53.803Z,12.50
2022-09-18T08:31:23.213Z,12.50
2022-09-18T08:33:55.622Z,12.60
2022-09-18T08:36:25.386Z,12.70
2022-09-18T08:39:03.382Z,12.90
2022-09-18T08:42:08.630Z,13.00
2022-09-18T08:44:47.161Z,13.20
2022-09-18T08:47:23.538Z,13.20
2022-09-18T08:50:00.835Z,13.20
2022-09-18T08:52:33.979Z,13.20
2022-09-18T08:55:21.147Z,13.20
2022-09-18T08:58:12.828Z,13.10
2022-09-18T09:00:49.472Z,13.20
2022-09-18T09:03:50.573Z,13.20
2022-09-18T09:06:31.935Z,13.20
2022-09-18T09:09:29.825Z,13.20
2022-09-18T09:12:07.326Z,13.30
2022-09-18T09:15:02.339Z,13.30
2022-09-18T09:17:40.774Z,13.30
2022-09-18T09:20:22.736Z,13.40
2022-09-18T09:23:03.109Z,13.50
2022-09-18T09:25:40.192Z,13.50
2022-09-18T09:28:19.103Z,13.50
2022-09-18T09:31:16.986Z,13.60
2022-09-18T09:34:10.670Z,13.60
2022-09-18T09:37:15.364Z,13.70
2022-09-18T09:39:49.467Z,13.80
2022-09-18T09:42:23.045Z,13.90
2022-09-18T09:44:56.427Z,14.00
2022-09-18T09:47:32.104Z,14.10
2022-09-18T09:50:26.814Z,14.20
2022-09-18T09:52:59.983Z,14.30
2022-09-18T09:55:32.086Z,14.40
2022-09-18T09:58:12.726Z,14.40
2022-09-18T10:00:49.986Z,14.40
2022-09-18T10:03:32.458Z,14.30
2022-09-18T10:06:13.302Z,14.30
2022-09-18T10:08:47.986Z,14.40
2022-09-18T10:11:18.977Z,14.40
2022-09-18T10:14:02.354Z,14.50
2022-09-18T10:16:34.885Z,14.60
2022-09-18T10:19:05.622Z,14.70
2022-09-18T10:21:37.256Z,14.70
2022-09-18T10:24:15.662Z,14.70
2022-09-18T10:26:49.889Z,14.80
2022-09-18T10:29:35.002Z,14.80
2022-09-18T10:32:06.944Z,14.80
2022-09-18T10:34:45.271Z,14.70
2022-09-18T10:37:20.776Z,14.70
2022-09-18T10:39:54.846Z,14.60
2022-09-18T10:42:28.990Z,14.60
2022-09-18T10:45:24.861Z,14.60
2022-09-18T10:48:25.253Z,14.60
2022-09-18T10:50:55.149Z,14.60
2022-09-18T10:53:39.733Z,14.70
2022-09-18T10:56:27.667Z,14.60
2022-09-18T10:59:16.226Z,14.60
2022-09-18T11:02:04.126Z,14.60
2022-09-18T11:04:36.202Z,14.50
2022-09-18T11:07:41.511Z,14.50
2022-09-18T11:10:14.973Z,14.50
2022-09-18T11:13:05.434Z,14.50
2022-09-18T11:15:56.134Z,14.50
2022-09-18T11:18:37.973Z,14.60
2022-09-18T11:21:10.042Z,14.70
2022-09-18T11:23:39.217Z,14.80
2022-09-18T11:26:30.922Z,14.70
2022-09-18T11:29:07.899Z,14.70
2022-09-18T11:31:42.203Z,14.60
2022-09-18T11:34:23.291Z,14.50
2022-09-18T11:36:54.325Z,14.50
2022-09-18T11:39:27.371Z,14.50
2022-09-18T11:41:56.798Z,14.50
2022-09-18T11:44:28.483Z,14.50
2022-09-18T11:47:21.029Z,14.50
2022-09-18T11:49:55.734Z,14.50
2022-09-18T11:52:30.428Z,14.60
2022-09-18T11:55:13.497Z,14.60
2022-09-18T11:57:46.371Z,14.60
2022-09-18T12:00:18.714Z,14.70
2022-09-18T12:03:00.976Z,14.80
2022-09-18T12:05:37.861Z,14.80
2022-09-18T12:08:17.432Z,15.00
2022-09-18T12:10:57.280Z,15.10
2022-09-18T12:13:47.022Z,15.20
2022-09-18T12:16:21.860Z,15.30
2022-09-18T12:18:58.051Z,15.40
2022-09-18T12:21:41.776Z,15.40
2022-09-18T12:24:14.651Z,15.50
2022-09-18T12:26:52.122Z,15.50
2022-09-18T12:29:33.003Z,15.50
2022-09-18T12:32:09.461Z,15.60
2022-09-18T12:34:49.587Z,15.70
2022-09-18T12:37:45.671Z,15.60
2022-09-18T12:40:40.066Z,15.60
2022-09-18T12:43:35.269Z,15.40
2022-09-18T12:46:23.436Z,15.20
2022-09-18T12:49:15.618Z,15.00
2022-09-18T12:51:46.584Z,14.70
2022-09-18T12:54:46.435Z,14.50
2022-09-18T12:57:29.730Z,14.30
2022-09-18T13:00:03.055Z,14.20
2022-09-18T13:02:47.056Z,14.10
2022-09-18T13:05:20.540Z,14.10
2022-09-18T13:07:52.408Z,14.10
2022-09-18T13:10:25.596Z,14.20
2022-09-18T13:13:00.231Z,14.20
2022-09-18T13:15:34.010Z,14.30
2022-09-18T13:18:12.812Z,14.30
2022-09-18T13:20:44.099Z,14.40
2022-09-18T13:23:18.739Z,14.50
2022-09-18T13:25:51.740Z,14.60
2022-09-18T13:28:23.340Z,14.60
2022-09-18T13:31:24.686Z,14.70
2022-09-18T13:33:55.941Z,14.80
2022-09-18T13:36:26.844Z,14.90
2022-09-18T13:38:55.811Z,15.00
2022-09-18T13:41:25.603Z,15.00
2022-09-18T13:43:56.683Z,15.00
2022-09-18T13:46:34.679Z,15.00
2022-09-18T13:49:13.209Z,15.20
2022-09-18T13:51:41.952Z,15.30
2022-09-18T13:54:17.964Z,15.40
2022-09-18T13:57:24.664Z,15.40
2022-09-18T13:59:58.465Z,15.40
2022-09-18T14:02:32.901Z,15.30
2022-09-18T14:05:29.915Z,15.30
2022-09-18T14:08:38.231Z,15.30
2022-09-18T14:11:17.619Z,15.30
2022-09-18T14:13:54.145Z,15.30
2022-09-18T14:16:41.330Z,15.20
2022-09-18T14:19:32.134Z,15.20
2022-09-18T14:22:01.805Z,15.30
2022-09-18T14:24:57.393Z,15.30
2022-09-18T14:27:36.979Z,15.40
2022-09-18T14:30:16.746Z,15.50
2022-09-18T14:33:05.108Z,15.50
2022-09-18T14:35:46.979Z,15.60
2022-09-18T14:38:34.297Z,15.70
2022-09-18T14:41:18.914Z,15.70
2022-09-18T14:43:53.055Z,15.80
2022-09-18T14:46:22.525Z,15.80
2022-09-18T14:48:52.950Z,15.80
2022-09-18T14:51:23.316Z,15.80
2022-09-18T14:53:53.708Z,15.80
2022-09-18T14:56:26.929Z,15.70
2022-09-18T14:58:56.464Z,15.80
2022-09-18T15:01:27.110Z,15.70
2022-09-18T15:03:58.422Z,15.70
2022-09-18T15:06:35.200Z,15.70
2022-09-18T15:09:04.786Z,15.70
2022-09-18T15:11:52.256Z,15.70
2022-09-18T15:14:27.927Z,15.60
2022-09-18T15:16:57.984Z,15.60
2022-09-18T15:19:28.686Z,15.50
2022-09-18T15:22:00.006Z,15.40
2022-09-18T15:24:30.688Z,15.30
2022-09-18T15:27:02.498Z,15.20
2022-09-18T15:29:33.566Z,15.00
2022-09-18T15:32:05.090Z,14.80
2022-09-18T15:34:41.249Z,14.80
2022-09-18T15:37:14.566Z,14.70
2022-09-18T15:39:44.887Z,14.60
2022-09-18T15:42:28.194Z,14.50
2022-09-18T15:45:19.699Z,14.30
2022-09-18T15:47:48.000Z,14.00
2022-09-18T15:50:47.667Z,13.80
2022-09-18T15:53:29.488Z,13.60
2022-09-18T15:56:09.439Z,13.50
2022-09-18T15:58:44.779Z,13.50
2022-09-18T16:01:22.616Z,13.40
2022-09-18T16:04:18.395Z,13.40
2022-09-18T16:06:55.561Z,13.30
2022-09-18T16:09:42.906Z,13.30
2022-09-18T16:12:40.242Z,13.20
2022-09-18T16:15:29.710Z,13.20
2022-09-18T16:18:24.859Z,13.20
2022-09-18T16:21:05.035Z,13.20
2022-09-18T16:23:37.151Z,13.20
2022-09-18T16:26:10.562Z,13.20
2022-09-18T16:28:55.025Z,13.20
2022-09-18T16:31:27.468Z,13.20
2022-09-18T16:34:01.206Z,13.20
2022-09-18T16:36:35.050Z,13.10
2022-09-18T16:39:07.857Z,13.10
2022-09-18T16:41:36.906Z,13.10
2022-09-18T16:44:07.632Z,13.10
2022-09-18T16:46:42.228Z,13.20
2022-09-18T16:49:11.812Z,13.20
2022-09-18T16:51:39.955Z,13.20
2022-09-18T16:54:09.728Z,13.20
2022-09-18T16:56:42.816Z,13.20
2022-09-18T16:59:11.515Z,13.20
2022-09-18T17:02:00.552Z,13.10
2022-09-18T17:04:29.205Z,13.10
2022-09-18T17:06:57.360Z,13.10
2022-09-18T17:09:27.116Z,13.10
2022-09-18T17:11:56.169Z,13.00
2022-09-18T17:14:24.968Z,13.00
2022-09-18T17:16:53.754Z,13.00
2022-09-18T17:19:22.077Z,13.00
2022-09-18T17:21:51.245Z,13.00
2022-09-18T17:24:24.114Z,13.00
2022-09-18T17:26:54.533Z,13.00
2022-09-18T17:29:23.519Z,12.90
2022-09-18T17:31:53.029Z,12.90
2022-09-18T17:34:22.158Z,12.80
2022-09-18T17:36:50.303Z,12.80
2022-09-18T17:39:18.479Z,12.70
2022-09-18T17:41:46.827Z,12.70
2022-09-18T17:44:16.582Z,12.70
2022-09-18T17:46:45.248Z,12.60
2022-09-18T17:49:13.421Z,12.60
2022-09-18T17:51:41.702Z,12.60
2022-09-18T17:54:10.349Z,12.60
2022-09-18T17:56:38.673Z,12.60
2022-09-18T17:59:09.272Z,12.50
2022-09-18T18:01:43.081Z,12.50
2022-09-18T18:04:11.579Z,12.50
2022-09-18T18:06:40.379Z,12.40
2022-09-18T18:09:09.961Z,12.40
2022-09-18T18:11:39.070Z,12.40
2022-09-18T18:14:07.560Z,12.40
2022-09-18T18:16:36.253Z,12.30
2022-09-18T18:19:13.189Z,12.30
2022-09-18T18:21:43.008Z,12.30
2022-09-18T18:24:14.946Z,12.20
2022-09-18T18:26:44.157Z,12.20
2022-09-18T18:29:14.092Z,12.20
2022-09-18T18:31:44.213Z,12.20
2022-09-18T18:34:14.265Z,12.20
2022-09-18T18:36:43.762Z,12.10
2022-09-18T18:39:14.650Z,12.10
2022-09-18T18:41:44.886Z,12.10
2022-09-18T18:44:13.389Z,12.20
2022-09-18T18:46:41.899Z,12.10
2022-09-18T18:49:12.087Z,12.10
2022-09-18T18:51:47.789Z,12.10
2022-09-18T18:54:18.475Z,12.00
2022-09-18T18:56:47.387Z,12.00
2022-09-18T18:59:18.429Z,11.90
2022-09-18T19:01:47.333Z,11.80
2022-09-18T19:04:18.978Z,11.80
2022-09-18T19:06:49.864Z,11.70
2022-09-18T19:09:20.941Z,11.70
2022-09-18T19:11:50.362Z,11.60
2022-09-18T19:14:20.409Z,11.60
2022-09-18T19:16:49.428Z,11.60
2022-09-18T19:19:19.757Z,11.50
2022-09-18T19:21:49.464Z,11.50
2022-09-18T19:24:19.195Z,11.50
2022-09-18T19:26:48.929Z,11.60
2022-09-18T19:29:18.818Z,11.60
2022-09-18T19:31:47.968Z,11.60
2022-09-18T19:34:18.279Z,11.60
2022-09-18T19:36:47.124Z,11.60
2022-09-18T19:39:18.146Z,11.60
2022-09-18T19:41:52.396Z,11.60
2022-09-18T19:44:27.345Z,11.60
2022-09-18T19:46:58.749Z,11.60
2022-09-18T19:49:31.282Z,11.60
2022-09-18T19:51:59.652Z,11.60
2022-09-18T19:54:29.523Z,11.60
2022-09-18T19:56:58.080Z,11.60
2022-09-18T19:59:27.148Z,11.60
2022-09-18T20:01:55.525Z,11.60
2022-09-18T20:04:23.803Z,11.60
2022-09-18T20:06:51.909Z,11.60
2022-09-18T20:09:20.041Z,11.60
2022-09-18T20:11:49.698Z,11.60
2022-09-18T20:14:18.325Z,11.60
2022-09-18T20:16:46.533Z,11.60
2022-09-18T20:19:14.962Z,11.60
2022-09-18T20:21:43.207Z,11.60
2022-09-18T20:24:11.364Z,11.60
2022-09-18T20:26:39.500Z,11.60
2022-09-18T20:29:11.181Z,11.50
2022-09-18T20:31:42.282Z,11.60
2022-09-18T20:34:11.793Z,11.50
2022-09-18T20:36:39.989Z,11.50
2022-09-18T20:39:08.747Z,11.50
2022-09-18T20:41:37.995Z,11.50
2022-09-18T20:44:06.439Z,11.50
2022-09-18T20:46:37.480Z,11.50
2022-09-18T20:49:06.429Z,11.40
2022-09-18T20:51:35.944Z,11.50
2022-09-18T20:54:06.894Z,11.40
2022-09-18T20:56:41.176Z,11.40
2022-09-18T20:59:10.544Z,11.50
2022-09-18T21:01:42.059Z,11.40
2022-09-18T21:04:17.292Z,11.40
2022-09-18T21:06:47.001Z,11.40
2022-09-18T21:09:15.527Z,11.40
2022-09-18T21:11:45.930Z,11.40
2022-09-18T21:14:17.862Z,11.40
2022-09-18T21:16:48.998Z,11.40
2022-09-18T21:19:19.291Z,11.40
2022-09-18T21:21:49.141Z,11.40
2022-09-18T21:24:18.115Z,11.40
2022-09-18T21:26:48.926Z,11.40
2022-09-18T21:29:21.299Z,11.40
2022-09-18T21:31:52.443Z,11.40
2022-09-18T21:34:24.624Z,11.40
2022-09-18T21:36:55.160Z,11.40
2022-09-18T21:39:23.585Z,11.40
2022-09-18T21:41:53.249Z,11.40
2022-09-18T21:44:24.735Z,11.40
2022-09-18T21:46:56.336Z,11.40
2022-09-18T21:49:25.086Z,11.40
2022-09-18T21:51:56.079Z,11.30
2022-09-18T21:54:25.213Z,11.30
2022-09-18T21:56:54.243Z,11.30
2022-09-18T21:59:24.680Z,11.30
2022-09-18T22:01:55.511Z,11.30
2022-09-18T22:04:26.255Z,11.30
2022-09-18T22:06:56.261Z,11.20
2022-09-18T22:09:27.049Z,11.20
2022-09-18T22:11:56.506Z,11.20
2022-09-18T22:14:29.746Z,11.20
2022-09-18T22:17:00.327Z,11.20
2022-09-18T22:19:29.242Z,11.20
2022-09-18T22:21:58.143Z,11.20
2022-09-18T22:24:27.481Z,11.20
2022-09-18T22:26:58.188Z,11.10
2022-09-18T22:29:28.715Z,11.10
2022-09-18T22:31:59.464Z,11.10
2022-09-18T22:34:30.157Z,11.10
2022-09-18T22:36:59.267Z,11.10
2022-09-18T22:39:28.577Z,11.10
2022-09-18T22:41:57.190Z,11.00
2022-09-18T22:44:25.657Z,11.00
2022-09-18T22:46:54.482Z,11.00
2022-09-18T22:49:24.949Z,11.00
2022-09-18T22:51:53.339Z,11.00
2022-09-18T22:54:24.882Z,11.00
2022-09-18T22:56:53.772Z,11.00
2022-09-18T22:59:23.641Z,11.00
2022-09-18T23:01:53.989Z,11.00
2022-09-18T23:04:26.689Z,11.00
2022-09-18T23:06:54.821Z,11.00
2022-09-18T23:09:23.277Z,11.00
2022-09-18T23:11:53.108Z,11.00
2022-09-18T23:14:23.161Z,11.00
2022-09-18T23:16:51.480Z,11.00
2022-09-18T23:19:22.415Z,11.00
2022-09-18T23:21:51.976Z,11.00
2022-09-18T23:24:20.794Z,11.00
2022-09-18T23:26:50.662Z,11.00
2022-09-18T23:29:21.171Z,10.90
2022-09-18T23:31:52.935Z,10.90
2022-09-18T23:34:23.790Z,10.90
2022-09-18T23:36:56.070Z,10.90
2022-09-18T23:39:26.897Z,10.90
2022-09-18T23:41:55.594Z,10.90
2022-09-18T23:44:25.120Z,10.90
2022-09-18T23:46:53.417Z,10.90
2022-09-18T23:49:23.373Z,10.90
2022-09-18T23:51:54.805Z,10.90
2022-09-18T23:54:25.633Z,10.90
2022-09-18T23:56:57.002Z,10.90
2022-09-18T23:59:27.163Z,10.90
